This is the latest recevied weather packets stored in our database for station/object SQ3VAS-10. If no packets are shown the sender has not sent any weather packets the latest 10 day(s).
| Time | Temp. | Humidity | Pressure | Rain* | Wind** | Luminosity | Snow |
|---|---|---|---|---|---|---|---|
| 1777652874 | 32.22° C | 17% | 1024.8 hPa | - | - | - | - |
| 1777652299 | 31.67° C | 17% | 1024.9 hPa | - | - | - | - |
| 1777651727 | 31.67° C | 18% | 1025 hPa | - | - | - | - |
| 1777651153 | 30.56° C | 19% | 1025.1 hPa | - | - | - | - |
| 1777650580 | 31.67° C | 18% | 1025 hPa | - | - | - | - |
| 1777650007 | 30.56° C | 19% | 1025.3 hPa | - | - | - | - |
| 1777649434 | 32.22° C | 18% | 1025.2 hPa | - | - | - | - |
| 1777648860 | 30.56° C | 20% | 1025.3 hPa | - | - | - | - |
| 1777648288 | 31.11° C | 20% | 1025.3 hPa | - | - | - | - |
| 1777647714 | 32.22° C | 19% | 1025.3 hPa | - | - | - | - |
| 1777647141 | 32.22° C | 19% | 1025.4 hPa | - | - | - | - |
| 1777646570 | 32.22° C | 18% | 1025.6 hPa | - | - | - | - |
| 1777645424 | 33.33° C | 18% | 1025.5 hPa | - | - | - | - |
| 1777644850 | 33.33° C | 18% | 1025.5 hPa | - | - | - | - |
| 1777644275 | 32.78° C | 19% | 1025.6 hPa | - | - | - | - |
| 1777643701 | 31.67° C | 20% | 1025.6 hPa | - | - | - | - |
| 1777643127 | 31.11° C | 21% | 1025.8 hPa | - | - | - | - |
| 1777642555 | 31.67° C | 21% | 1025.8 hPa | - | - | - | - |
| 1777641981 | 32.22° C | 20% | 1026 hPa | - | - | - | - |
| 1777641409 | 32.22° C | 20% | 1025.9 hPa | - | - | - | - |
| 1777640835 | 32.78° C | 19% | 1026.1 hPa | - | - | - | - |
| 1777640260 | 32.78° C | 21% | 1026.2 hPa | - | - | - | - |
| 1777639686 | 30.56° C | 22% | 1026.5 hPa | - | - | - | - |
| 1777639113 | 31.11° C | 22% | 1026.6 hPa | - | - | - | - |
| 1777638540 | 30.56° C | 21% | 1026.7 hPa | - | - | - | - |
* Rain since midnight (hover to see other rain measurements)
** Current wind speed in m/s (hover to see current wind gust speed)